createdAt,value
2022-12-31T00:00:16.896Z,43
2022-12-31T00:05:12.964Z,36.66
2022-12-31T00:10:09.231Z,30.639999999999997
2022-12-31T00:15:05.487Z,32.86
2022-12-31T00:20:01.717Z,43.260000000000005
2022-12-31T00:24:58.017Z,39.42
2022-12-31T00:29:55.066Z,32.5
2022-12-31T00:34:53.511Z,52.78000000000001
2022-12-31T00:39:49.733Z,57.620000000000005
2022-12-31T00:44:46.050Z,65.05999999999999
2022-12-31T00:49:42.301Z,66.88
2022-12-31T00:54:38.534Z,34.58
2022-12-31T00:59:34.812Z,44.2
2022-12-31T01:04:32.073Z,34.339999999999996
2022-12-31T01:09:28.313Z,27.78
2022-12-31T01:14:25.624Z,29.959999999999997
2022-12-31T01:19:23.853Z,25.619999999999997
2022-12-31T01:24:20.120Z,25.98
2022-12-31T01:29:16.351Z,25.1
2022-12-31T01:34:12.596Z,22.34
2022-12-31T01:39:08.895Z,20.419999999999998
2022-12-31T01:44:22.128Z,26.3
2022-12-31T01:49:22.310Z,23.619999999999997
2022-12-31T01:54:19.592Z,27.139999999999997
2022-12-31T01:59:18.821Z,28.22
2022-12-31T02:04:16.114Z,21.64
2022-12-31T02:09:11.364Z,22.92
2022-12-31T02:14:09.628Z,24.5
2022-12-31T02:19:15.844Z,25.98
2022-12-31T02:24:34.101Z,28.7
2022-12-31T02:29:46.281Z,27.28
2022-12-31T02:34:47.501Z,23.38
2022-12-31T02:39:44.795Z,27.060000000000002
2022-12-31T02:44:46.042Z,29.120000000000005
2022-12-31T02:49:53.234Z,24.619999999999997
2022-12-31T02:54:58.552Z,24.24
2022-12-31T02:59:58.720Z,25.200000000000003
2022-12-31T03:04:55.015Z,23.26
2022-12-31T03:09:50.268Z,25.1
2022-12-31T03:14:46.531Z,26
2022-12-31T03:19:42.778Z,31.279999999999994
2022-12-31T03:24:39.057Z,33.6
2022-12-31T03:29:35.292Z,32.94
2022-12-31T03:34:31.558Z,71.75999999999999
2022-12-31T03:39:27.812Z,34.96
2022-12-31T03:44:24.099Z,28.2
2022-12-31T03:49:20.376Z,28.140000000000004
2022-12-31T03:54:16.623Z,31.54
2022-12-31T03:59:12.896Z,39.96
2022-12-31T04:04:09.144Z,27.1
2022-12-31T04:09:05.387Z,25.14
2022-12-31T04:14:05.635Z,29.54
2022-12-31T04:19:01.893Z,26.639999999999997
2022-12-31T04:23:58.147Z,24.839999999999996
2022-12-31T04:28:54.430Z,25.1
2022-12-31T04:33:50.666Z,28.4
2022-12-31T04:38:46.944Z,26.46
2022-12-31T04:43:44.188Z,28.380000000000003
2022-12-31T04:48:40.465Z,25.6
2022-12-31T04:53:36.677Z,24.44
2022-12-31T04:58:32.969Z,26.839999999999996
2022-12-31T05:03:29.230Z,25.96
2022-12-31T05:08:25.495Z,23.2
2022-12-31T05:13:21.719Z,27.559999999999995
2022-12-31T05:18:17.967Z,28.160000000000004
2022-12-31T05:23:14.244Z,26.7
2022-12-31T05:28:10.573Z,30.259999999999998
2022-12-31T05:33:06.803Z,25.46
2022-12-31T05:38:03.087Z,31.279999999999994
2022-12-31T05:42:59.330Z,39.21999999999999
2022-12-31T05:47:54.571Z,38.56
2022-12-31T05:52:50.828Z,31.639999999999997
2022-12-31T05:57:47.115Z,47.040000000000006
2022-12-31T06:02:43.371Z,28.119999999999997
2022-12-31T06:07:39.616Z,53.11999999999999
2022-12-31T06:12:35.842Z,49.62
2022-12-31T06:17:33.096Z,36.08
2022-12-31T06:22:29.369Z,31.580000000000002
2022-12-31T06:27:25.689Z,26.96
2022-12-31T06:32:21.875Z,31.479999999999997
2022-12-31T06:37:18.164Z,63.96
2022-12-31T06:42:14.414Z,30.380000000000003
2022-12-31T06:47:09.652Z,26.380000000000003
2022-12-31T06:52:05.948Z,24.66
2022-12-31T06:57:02.235Z,29.360000000000003
2022-12-31T07:02:09.458Z,51.04
2022-12-31T07:07:13.687Z,72.32000000000001
2022-12-31T07:12:19.886Z,61.36
2022-12-31T07:17:26.188Z,52.080000000000005
2022-12-31T07:22:24.401Z,48.720000000000006
2022-12-31T07:27:33.671Z,31.380000000000003
2022-12-31T07:32:40.817Z,34.019999999999996
2022-12-31T07:37:42.083Z,31.560000000000002
2022-12-31T07:42:45.324Z,31.959999999999997
2022-12-31T07:47:47.824Z,36.739999999999995
2022-12-31T07:52:44.858Z,47.00000000000001
2022-12-31T07:57:45.097Z,41.99999999999999
2022-12-31T08:02:57.409Z,43.42
2022-12-31T08:08:02.506Z,45.06
2022-12-31T08:13:04.783Z,56.94
2022-12-31T08:18:02.300Z,44.56
2022-12-31T08:23:09.301Z,45.8
2022-12-31T08:28:14.519Z,28.340000000000003
2022-12-31T08:33:18.778Z,28.439999999999998
2022-12-31T08:38:21.063Z,27.1
2022-12-31T08:43:30.294Z,27.080000000000002
2022-12-31T08:48:37.446Z,25.9
2022-12-31T08:53:33.695Z,18.9
2022-12-31T08:58:41.550Z,18.28
2022-12-31T09:03:53.228Z,18.6
2022-12-31T09:08:57.443Z,18.479999999999997
2022-12-31T09:14:02.671Z,20.56
2022-12-31T09:18:58.914Z,21.34
2022-12-31T09:23:55.168Z,22.159999999999997
2022-12-31T09:29:01.439Z,21.18
2022-12-31T09:34:06.695Z,17.76
2022-12-31T09:39:11.949Z,14.34
2022-12-31T09:44:22.125Z,16.8
2022-12-31T09:49:32.423Z,17.240000000000002
2022-12-31T09:54:44.579Z,19.96
2022-12-31T09:59:47.796Z,19.42
2022-12-31T10:04:56.541Z,24.660000000000004
2022-12-31T10:10:07.244Z,29.2
2022-12-31T10:15:23.485Z,38.82000000000001
2022-12-31T10:20:43.350Z,15.88
2022-12-31T10:25:59.621Z,33.32000000000001
2022-12-31T10:31:03.257Z,28.78
2022-12-31T10:36:04.350Z,20.580000000000002
2022-12-31T10:41:18.861Z,19.6
2022-12-31T10:46:36.798Z,23.04
2022-12-31T10:51:52.973Z,17.979999999999997
2022-12-31T11:02:16.727Z,13.179999999999998
2022-12-31T11:07:28.649Z,17.1
2022-12-31T11:12:34.875Z,12.459999999999999
2022-12-31T11:17:44.555Z,13.8
2022-12-31T11:22:56.340Z,16.8
2022-12-31T11:28:02.562Z,12.66
2022-12-31T11:33:10.805Z,12.420000000000002
2022-12-31T11:38:18.031Z,18.56
2022-12-31T11:43:22.272Z,16.5
2022-12-31T11:48:32.018Z,16.04
2022-12-31T11:53:42.708Z,17.5
2022-12-31T11:58:46.942Z,13.180000000000001
2022-12-31T12:03:44.289Z,19.139999999999997
2022-12-31T12:08:42.472Z,18.360000000000003
2022-12-31T12:13:43.686Z,24.7
2022-12-31T12:18:47.345Z,16.860000000000003
2022-12-31T12:23:54.171Z,29.78
2022-12-31T12:28:52.457Z,36.620000000000005
2022-12-31T12:33:50.778Z,18.48
2022-12-31T12:38:53.939Z,18.360000000000003
2022-12-31T12:43:58.168Z,21.380000000000003
2022-12-31T12:49:02.464Z,16.02
2022-12-31T12:54:13.682Z,21.24
2022-12-31T12:59:26.891Z,19.32
2022-12-31T13:04:42.228Z,28.419999999999998
2022-12-31T13:09:51.287Z,26.160000000000004
2022-12-31T13:14:58.785Z,20.28
2022-12-31T13:20:02.781Z,23.54
2022-12-31T13:25:14.037Z,23.139999999999997
2022-12-31T13:30:14.260Z,26.3
2022-12-31T13:35:21.515Z,29.04
2022-12-31T13:40:20.715Z,24.04
2022-12-31T13:45:22.972Z,40.620000000000005
2022-12-31T13:50:23.314Z,28.8
2022-12-31T13:55:28.445Z,41.18
2022-12-31T14:00:32.735Z,29.76
2022-12-31T14:05:33.113Z,72.54
2022-12-31T14:10:35.176Z,46.279999999999994
2022-12-31T14:20:51.301Z,56.660000000000004
2022-12-31T14:25:54.896Z,90.67999999999999
2022-12-31T14:30:56.191Z,37.76
2022-12-31T14:36:10.805Z,21.660000000000004
2022-12-31T14:41:23.639Z,55.419999999999995
2022-12-31T14:46:28.820Z,49.160000000000004
2022-12-31T14:51:27.080Z,46.89999999999999
2022-12-31T14:56:31.336Z,47.980000000000004
2022-12-31T15:01:28.792Z,29.04
2022-12-31T15:06:34.091Z,28.619999999999997
2022-12-31T15:11:45.018Z,32.980000000000004
2022-12-31T15:16:55.370Z,62.84000000000001
2022-12-31T15:22:06.074Z,110.85999999999999
2022-12-31T15:27:10.167Z,35.66
2022-12-31T15:32:12.997Z,34.5
2022-12-31T15:37:19.570Z,48.260000000000005
2022-12-31T15:42:37.798Z,113.4
2022-12-31T15:47:36.652Z,63.36
2022-12-31T15:52:38.867Z,40.38
2022-12-31T15:57:37.282Z,43.459999999999994
2022-12-31T16:02:33.628Z,42.67999999999999
2022-12-31T16:07:31.668Z,53.919999999999995
2022-12-31T16:12:44.366Z,53.92
2022-12-31T16:17:44.115Z,46.32000000000001
2022-12-31T16:27:52.686Z,75.52000000000001
2022-12-31T16:32:50.888Z,85.26
2022-12-31T16:37:48.137Z,58
2022-12-31T16:42:49.390Z,49.14
2022-12-31T16:47:49.066Z,51.11999999999999
2022-12-31T16:52:58.904Z,34.36
2022-12-31T16:58:04.043Z,36.14
2022-12-31T17:03:07.626Z,43.78
2022-12-31T17:08:20.542Z,39.68
2022-12-31T17:13:29.150Z,41.980000000000004
2022-12-31T17:18:30.584Z,33.56
2022-12-31T17:23:32.271Z,18.68
2022-12-31T17:28:37.498Z,30.380000000000003
2022-12-31T17:33:33.775Z,31.020000000000003
2022-12-31T17:38:35.976Z,19.98
2022-12-31T17:43:35.434Z,40.38
2022-12-31T17:48:31.534Z,45.2
2022-12-31T17:53:29.817Z,35.14
2022-12-31T17:58:30.135Z,55.14
2022-12-31T18:03:26.802Z,67.62
2022-12-31T18:08:23.545Z,65.16
2022-12-31T18:13:22.849Z,73.56
2022-12-31T18:18:24.383Z,26.9
2022-12-31T18:23:22.559Z,22.340000000000003
2022-12-31T18:28:19.564Z,18.98
2022-12-31T18:33:16.807Z,61.14
2022-12-31T18:38:14.090Z,57.5
2022-12-31T18:43:14.352Z,39.14
2022-12-31T18:48:16.230Z,54.220000000000006
2022-12-31T18:58:22.626Z,29.240000000000002
2022-12-31T19:03:21.166Z,40.46
2022-12-31T19:08:18.545Z,51.5
2022-12-31T19:13:15.857Z,36
2022-12-31T19:18:17.092Z,28.48
2022-12-31T19:23:15.289Z,90.13999999999999
2022-12-31T19:28:14.598Z,36.120000000000005
2022-12-31T19:33:10.855Z,34.839999999999996
2022-12-31T19:38:12.113Z,24.32
2022-12-31T19:43:13.816Z,32.84
2022-12-31T19:48:11.591Z,30.74
2022-12-31T19:53:09.811Z,29
2022-12-31T19:58:08.064Z,23.52
2022-12-31T20:03:04.455Z,24.22
2022-12-31T20:08:00.651Z,33
2022-12-31T20:12:56.880Z,34.339999999999996
2022-12-31T20:17:57.144Z,29.619999999999997
2022-12-31T20:22:57.393Z,31.3
2022-12-31T20:27:53.645Z,43.4
2022-12-31T20:32:50.923Z,117.55999999999999
2022-12-31T20:37:49.143Z,93.82
2022-12-31T20:42:45.368Z,152.12000000000003
2022-12-31T20:47:41.695Z,134.35999999999999
2022-12-31T20:52:37.919Z,106.56000000000002
2022-12-31T20:57:34.270Z,76.63999999999999
2022-12-31T21:02:41.599Z,32.14
2022-12-31T21:07:31.897Z,58.3
2022-12-31T21:12:27.931Z,68.22
2022-12-31T21:17:24.203Z,26.660000000000004
2022-12-31T21:22:20.476Z,28.68
2022-12-31T21:27:17.709Z,30.720000000000006
2022-12-31T21:32:14.270Z,28.18
2022-12-31T21:37:10.273Z,25.259999999999998
2022-12-31T21:42:06.500Z,30.240000000000002
2022-12-31T21:47:33.756Z,30.68
2022-12-31T21:52:04.109Z,26.919999999999998
2022-12-31T21:57:00.317Z,28.96
2022-12-31T22:01:57.646Z,165.84
2022-12-31T22:06:54.756Z,147.4
2022-12-31T22:11:52.249Z,73.78
2022-12-31T22:16:49.290Z,61.839999999999996
2022-12-31T22:21:46.709Z,89.75999999999999
2022-12-31T22:26:46.826Z,78.7
2022-12-31T22:31:45.130Z,48.739999999999995
2022-12-31T22:36:43.273Z,56.68000000000001
2022-12-31T22:41:40.572Z,43.38000000000001
2022-12-31T22:46:40.898Z,47.38
2022-12-31T22:51:56.255Z,42.2
2022-12-31T23:01:48.582Z,39.980000000000004
2022-12-31T23:06:46.526Z,49.48
2022-12-31T23:11:43.173Z,60.5
2022-12-31T23:16:43.755Z,51.160000000000004
2022-12-31T23:21:41.571Z,44.72
2022-12-31T23:26:38.727Z,71.1
2022-12-31T23:31:39.144Z,100.25999999999999
2022-12-31T23:36:35.304Z,107.6
2022-12-31T23:41:32.572Z,98.7
2022-12-31T23:46:29.064Z,42.64
2022-12-31T23:51:25.126Z,37.54
2022-12-31T23:56:24.072Z,35.11999999999999
